createdAt,value
2019-02-05T00:01:41.797Z,30.02
2019-02-05T00:04:08.891Z,29.92
2019-02-05T00:06:35.927Z,28.50
2019-02-05T00:09:08.319Z,27.75
2019-02-05T00:11:35.367Z,28.15
2019-02-05T00:14:02.401Z,28.30
2019-02-05T00:16:29.447Z,32.50
2019-02-05T00:18:56.791Z,33.42
2019-02-05T00:21:23.853Z,32.85
2019-02-05T00:23:50.892Z,31.62
2019-02-05T00:26:17.947Z,32.40
2019-02-05T00:28:44.994Z,29.30
2019-02-05T00:31:12.053Z,28.87
2019-02-05T00:33:39.102Z,29.27
2019-02-05T00:36:06.288Z,27.67
2019-02-05T00:38:33.353Z,26.37
2019-02-05T00:41:00.413Z,26.82
2019-02-05T00:43:27.459Z,24.72
2019-02-05T00:45:54.507Z,24.55
2019-02-05T00:48:21.535Z,26.33
2019-02-05T00:50:48.568Z,24.27
2019-02-05T00:53:15.598Z,26.50
2019-02-05T00:55:42.865Z,25.05
2019-02-05T00:58:09.951Z,26.42
2019-02-05T01:00:36.995Z,26.30
2019-02-05T01:03:04.398Z,25.52
2019-02-05T01:05:31.449Z,26.60
2019-02-05T01:07:58.521Z,25.17
2019-02-05T01:10:25.934Z,25.15
2019-02-05T01:12:53.454Z,28.27
2019-02-05T01:15:21.008Z,25.62
2019-02-05T01:17:48.058Z,23.30
2019-02-05T01:20:15.964Z,24.18
2019-02-05T01:22:43.064Z,30.12
2019-02-05T01:25:10.218Z,24.45
2019-02-05T01:27:37.266Z,23.52
2019-02-05T01:30:05.340Z,24.40
2019-02-05T01:32:32.374Z,26.17
2019-02-05T01:34:59.441Z,23.85
2019-02-05T01:37:26.493Z,25.48
2019-02-05T01:39:53.724Z,24.95
2019-02-05T01:42:20.759Z,25.65
2019-02-05T01:44:47.792Z,25.08
2019-02-05T01:47:15.167Z,26.40
2019-02-05T01:49:42.304Z,25.37
2019-02-05T01:52:09.359Z,24.57
2019-02-05T01:54:36.410Z,24.37
2019-02-05T01:57:03.444Z,23.40
2019-02-05T01:59:30.496Z,23.20
2019-02-05T02:01:57.517Z,24.70
2019-02-05T02:04:24.556Z,24.80
2019-02-05T02:06:51.822Z,22.98
2019-02-05T02:09:18.897Z,24.47
2019-02-05T02:11:45.932Z,26.40
2019-02-05T02:14:12.998Z,23.65
2019-02-05T02:16:40.030Z,23.40
2019-02-05T02:19:07.083Z,23.42
2019-02-05T02:21:34.336Z,22.87
2019-02-05T02:24:01.689Z,26.70
2019-02-05T02:26:28.758Z,27.13
2019-02-05T02:28:55.805Z,24.52
2019-02-05T02:31:22.868Z,27.07
2019-02-05T02:33:49.919Z,23.87
2019-02-05T02:36:16.964Z,26.00
2019-02-05T02:38:44.009Z,24.77
2019-02-05T02:41:11.057Z,26.68
2019-02-05T02:43:38.305Z,26.02
2019-02-05T02:46:05.363Z,29.80
2019-02-05T02:48:32.411Z,28.05
2019-02-05T02:50:59.451Z,27.45
2019-02-05T02:53:26.521Z,28.32
2019-02-05T02:55:53.584Z,30.70
2019-02-05T02:58:20.632Z,28.92
2019-02-05T03:00:47.957Z,27.95
2019-02-05T03:03:15.011Z,28.57
2019-02-05T03:05:44.299Z,28.00
2019-02-05T03:08:11.103Z,26.97
2019-02-05T03:10:38.168Z,26.17
2019-02-05T03:13:05.215Z,27.80
2019-02-05T03:15:32.263Z,29.32
2019-02-05T03:17:59.296Z,28.35
2019-02-05T03:20:26.338Z,26.05
2019-02-05T03:22:53.726Z,26.12
2019-02-05T03:25:21.156Z,27.42
2019-02-05T03:27:48.237Z,26.45
2019-02-05T03:30:19.473Z,27.80
2019-02-05T03:32:46.535Z,25.95
2019-02-05T03:35:13.954Z,30.20
2019-02-05T03:37:41.002Z,26.45
2019-02-05T03:40:16.039Z,27.10
2019-02-05T03:42:43.089Z,27.82
2019-02-05T03:45:10.217Z,28.05
2019-02-05T03:47:37.247Z,27.70
2019-02-05T03:50:04.656Z,26.80
2019-02-05T03:52:39.362Z,27.25
2019-02-05T03:55:46.606Z,24.57
2019-02-05T03:58:42.985Z,28.55
2019-02-05T04:01:27.179Z,30.50
2019-02-05T04:04:54.477Z,28.32
2019-02-05T04:07:54.120Z,24.90
2019-02-05T04:10:55.384Z,22.75
2019-02-05T04:13:59.062Z,23.50
2019-02-05T04:16:59.686Z,25.55
2019-02-05T04:20:03.201Z,26.23
2019-02-05T04:23:16.783Z,22.95
2019-02-05T04:26:09.054Z,24.43
2019-02-05T04:29:11.613Z,25.08
2019-02-05T04:32:34.253Z,26.57
2019-02-05T04:35:31.131Z,26.35
2019-02-05T04:38:54.759Z,27.48
2019-02-05T04:41:59.170Z,27.52
2019-02-05T04:44:50.341Z,26.82
2019-02-05T04:47:56.551Z,26.40
2019-02-05T04:50:56.607Z,27.95
2019-02-05T04:53:56.772Z,28.30
2019-02-05T04:57:08.318Z,24.80
2019-02-05T05:00:23.577Z,26.80
2019-02-05T05:03:35.247Z,27.32
2019-02-05T05:06:47.365Z,28.25
2019-02-05T05:09:33.441Z,25.62
2019-02-05T05:12:00.505Z,30.82
2019-02-05T05:14:27.569Z,26.20
2019-02-05T05:16:54.656Z,26.57
2019-02-05T05:19:21.663Z,26.05
2019-02-05T05:21:48.718Z,25.82
2019-02-05T05:24:15.761Z,27.45
2019-02-05T05:26:42.803Z,26.60
2019-02-05T05:29:09.834Z,27.22
2019-02-05T05:31:36.876Z,26.73
2019-02-05T05:34:04.055Z,26.87
2019-02-05T05:36:31.102Z,27.48
2019-02-05T05:38:58.470Z,26.20
2019-02-05T05:41:25.501Z,24.43
2019-02-05T05:43:52.580Z,28.95
2019-02-05T05:46:19.610Z,24.85
2019-02-05T05:48:46.668Z,26.90
2019-02-05T05:51:13.716Z,24.80
2019-02-05T05:53:40.810Z,27.05
2019-02-05T05:56:07.917Z,24.82
2019-02-05T05:58:35.268Z,24.47
2019-02-05T06:01:02.354Z,24.40
2019-02-05T06:03:29.470Z,26.40
2019-02-05T06:05:56.554Z,24.27
2019-02-05T06:08:23.608Z,25.12
2019-02-05T06:10:50.703Z,25.62
2019-02-05T06:13:17.748Z,26.37
2019-02-05T06:15:44.828Z,24.12
2019-02-05T06:18:12.063Z,25.65
2019-02-05T06:20:39.277Z,29.10
2019-02-05T06:23:06.749Z,32.30
2019-02-05T06:25:33.890Z,32.30
2019-02-05T06:28:00.929Z,22.25
2019-02-05T06:30:27.973Z,21.00
2019-02-05T06:32:55.048Z,22.40
2019-02-05T06:35:22.100Z,19.60
2019-02-05T06:37:49.540Z,20.43
2019-02-05T06:40:17.641Z,20.82
2019-02-05T06:42:44.829Z,18.87
2019-02-05T06:45:12.622Z,20.92
2019-02-05T06:47:39.782Z,19.30
2019-02-05T06:50:07.613Z,21.70
2019-02-05T06:52:34.669Z,21.95
2019-02-05T06:55:01.729Z,21.93
2019-02-05T06:57:29.385Z,21.25
2019-02-05T06:59:56.428Z,19.50
2019-02-05T07:02:23.469Z,20.75
2019-02-05T07:04:50.513Z,21.23
2019-02-05T07:07:17.687Z,22.52
2019-02-05T07:09:44.770Z,20.70
2019-02-05T07:12:11.811Z,23.67
2019-02-05T07:14:38.852Z,21.45
2019-02-05T07:17:06.180Z,22.20
2019-02-05T07:19:33.263Z,23.00
2019-02-05T07:22:00.285Z,22.22
2019-02-05T07:24:27.327Z,24.77
2019-02-05T07:26:54.291Z,22.25
2019-02-05T07:29:21.339Z,20.48
2019-02-05T07:31:48.381Z,23.32
2019-02-05T07:34:15.441Z,24.60
2019-02-05T07:36:42.955Z,24.65
2019-02-05T07:39:10.195Z,24.27
2019-02-05T07:41:37.287Z,25.35
2019-02-05T07:44:04.505Z,24.63
2019-02-05T07:46:31.592Z,26.50
2019-02-05T07:48:58.625Z,24.67
2019-02-05T07:51:25.659Z,26.55
2019-02-05T07:53:52.727Z,23.20
2019-02-05T07:56:19.779Z,24.87
2019-02-05T07:58:46.843Z,23.20
2019-02-05T08:01:14.098Z,24.82
2019-02-05T08:03:41.125Z,22.52
2019-02-05T08:06:08.154Z,23.98
2019-02-05T08:08:35.198Z,23.62
2019-02-05T08:11:02.325Z,21.87
2019-02-05T08:13:29.376Z,23.27
2019-02-05T08:15:56.430Z,23.92
2019-02-05T08:18:26.247Z,24.47
2019-02-05T08:20:53.322Z,21.27
2019-02-05T08:23:20.801Z,23.10
2019-02-05T08:25:47.855Z,23.77
2019-02-05T08:28:14.888Z,23.67
2019-02-05T08:30:44.380Z,23.05
2019-02-05T08:33:11.433Z,26.25
2019-02-05T08:35:38.487Z,24.92
2019-02-05T08:38:05.523Z,25.48
2019-02-05T08:40:32.674Z,23.98
2019-02-05T08:43:00.002Z,23.10
2019-02-05T08:45:28.219Z,21.52
2019-02-05T08:47:55.270Z,21.00
2019-02-05T08:50:23.808Z,21.62
2019-02-05T08:52:50.880Z,23.12
2019-02-05T08:55:18.597Z,21.65
2019-02-05T08:57:45.865Z,21.62
2019-02-05T09:00:17.944Z,21.42
2019-02-05T09:02:45.307Z,20.62
2019-02-05T09:05:12.427Z,20.52
2019-02-05T09:07:39.490Z,22.42
2019-02-05T09:10:07.802Z,23.15
2019-02-05T09:12:34.883Z,24.65
2019-02-05T09:15:02.031Z,22.55
2019-02-05T09:17:29.082Z,23.50
2019-02-05T09:19:56.121Z,24.92
2019-02-05T09:22:23.709Z,21.62
2019-02-05T09:24:50.770Z,23.10
2019-02-05T09:27:17.857Z,24.63
2019-02-05T09:29:44.980Z,23.55
2019-02-05T09:32:12.053Z,24.60
2019-02-05T09:34:40.854Z,23.38
2019-02-05T09:37:07.975Z,23.42
2019-02-05T09:39:35.010Z,22.45
2019-02-05T09:42:02.469Z,23.62
2019-02-05T09:44:31.459Z,22.52
2019-02-05T09:46:58.536Z,22.27
2019-02-05T09:49:25.583Z,23.98
2019-02-05T09:51:52.651Z,25.43
2019-02-05T09:54:19.685Z,23.47
2019-02-05T09:56:46.717Z,25.25
2019-02-05T09:59:13.769Z,31.35
2019-02-05T10:01:40.807Z,26.33
2019-02-05T10:04:07.959Z,28.30
2019-02-05T10:06:34.997Z,23.57
2019-02-05T10:09:02.045Z,25.32
2019-02-05T10:11:29.107Z,24.77
2019-02-05T10:13:56.143Z,25.02
2019-02-05T10:16:23.202Z,23.65
2019-02-05T10:18:50.250Z,27.25
2019-02-05T10:21:17.300Z,32.53
2019-02-05T10:23:44.654Z,29.10
2019-02-05T10:26:11.735Z,28.30
2019-02-05T10:28:38.809Z,23.47
2019-02-05T10:31:05.857Z,25.10
2019-02-05T10:33:32.930Z,22.85
2019-02-05T10:36:01.396Z,24.15
2019-02-05T10:38:28.669Z,22.58
2019-02-05T10:40:55.726Z,24.10
2019-02-05T10:43:23.173Z,21.95
2019-02-05T10:45:50.211Z,22.67
2019-02-05T10:48:17.293Z,25.70
2019-02-05T10:50:44.363Z,23.15
2019-02-05T10:53:11.410Z,31.75
2019-02-05T10:55:38.473Z,37.38
2019-02-05T10:58:06.369Z,25.85
2019-02-05T11:00:33.425Z,25.12
2019-02-05T11:03:01.405Z,25.08
2019-02-05T11:05:29.292Z,28.30
2019-02-05T11:07:56.355Z,20.90
2019-02-05T11:10:23.434Z,20.80
2019-02-05T11:12:50.580Z,23.55
2019-02-05T11:15:19.644Z,22.30
2019-02-05T11:17:46.726Z,22.80
2019-02-05T11:20:15.906Z,22.48
2019-02-05T11:22:43.272Z,21.45
2019-02-05T11:25:10.424Z,21.57
2019-02-05T11:27:37.532Z,21.45
2019-02-05T11:30:19.666Z,24.12
2019-02-05T11:32:38.067Z,24.00
2019-02-05T11:35:05.624Z,21.65
2019-02-05T11:37:32.690Z,23.85
2019-02-05T11:39:59.758Z,23.15
2019-02-05T11:42:27.119Z,24.90
2019-02-05T11:44:54.475Z,24.27
2019-02-05T11:47:21.565Z,25.00
2019-02-05T11:49:48.717Z,24.43
2019-02-05T11:52:56.147Z,24.23
2019-02-05T11:55:24.368Z,22.22
2019-02-05T11:57:51.412Z,23.80
2019-02-05T12:00:32.644Z,24.98
2019-02-05T12:02:58.871Z,23.27
2019-02-05T12:05:25.924Z,23.22
2019-02-05T12:07:53.178Z,24.75
2019-02-05T12:10:20.258Z,26.23
2019-02-05T12:12:47.315Z,25.90
2019-02-05T12:15:14.804Z,25.12
2019-02-05T12:17:41.860Z,25.75
2019-02-05T12:20:10.565Z,26.10
2019-02-05T12:22:37.621Z,22.45
2019-02-05T12:25:07.309Z,25.55
2019-02-05T12:27:34.351Z,24.77
2019-02-05T12:30:01.524Z,23.42
2019-02-05T12:32:28.587Z,23.67
2019-02-05T12:34:55.628Z,26.93
2019-02-05T12:37:22.693Z,23.95
2019-02-05T12:39:49.763Z,23.75
2019-02-05T12:42:16.820Z,24.20
2019-02-05T12:44:43.875Z,23.42
2019-02-05T12:47:10.910Z,23.67
2019-02-05T12:49:38.090Z,23.45
2019-02-05T12:52:05.133Z,25.35
2019-02-05T12:54:32.190Z,26.97
2019-02-05T12:56:59.252Z,24.75
2019-02-05T12:59:26.317Z,23.35
2019-02-05T13:01:53.378Z,25.15
2019-02-05T13:04:20.448Z,27.77
2019-02-05T13:06:47.480Z,27.10
2019-02-05T13:09:14.552Z,24.40
2019-02-05T13:11:41.591Z,23.80
2019-02-05T13:14:08.661Z,22.90
2019-02-05T13:16:35.749Z,27.75
2019-02-05T13:19:03.015Z,25.97
2019-02-05T13:21:30.067Z,22.70
2019-02-05T13:23:57.136Z,24.60
2019-02-05T13:26:24.286Z,26.10
2019-02-05T13:28:51.351Z,26.10
2019-02-05T13:31:18.407Z,27.50
2019-02-05T13:33:45.480Z,25.00
2019-02-05T13:36:12.538Z,25.12
2019-02-05T13:38:39.597Z,27.07
2019-02-05T13:41:06.624Z,25.62
2019-02-05T13:43:33.892Z,23.62
2019-02-05T13:46:01.286Z,24.25
2019-02-05T13:48:28.350Z,23.80
2019-02-05T13:50:55.429Z,25.10
2019-02-05T13:53:22.476Z,26.73
2019-02-05T13:55:49.576Z,25.20
2019-02-05T13:58:16.642Z,26.62
2019-02-05T14:00:48.873Z,25.43
2019-02-05T14:03:15.965Z,25.27
2019-02-05T14:05:43.337Z,26.15
2019-02-05T14:08:10.687Z,27.87
2019-02-05T14:10:38.385Z,28.60
2019-02-05T14:13:05.848Z,26.75
2019-02-05T14:15:34.569Z,28.95
2019-02-05T14:18:02.177Z,27.32
2019-02-05T14:20:29.338Z,31.17
2019-02-05T14:22:56.408Z,28.47
2019-02-05T14:25:23.487Z,29.90
2019-02-05T14:27:50.556Z,27.17
2019-02-05T14:30:21.559Z,27.00
2019-02-05T14:32:48.946Z,28.00
2019-02-05T14:35:16.427Z,28.50
2019-02-05T14:37:43.522Z,28.95
2019-02-05T14:40:12.695Z,27.93
2019-02-05T14:42:39.786Z,26.05
2019-02-05T14:45:08.558Z,27.93
2019-02-05T14:47:35.632Z,31.07
2019-02-05T14:50:04.234Z,25.88
2019-02-05T14:52:31.768Z,25.25
2019-02-05T14:54:58.858Z,29.57
2019-02-05T14:57:25.948Z,28.62
2019-02-05T14:59:53.036Z,29.07
2019-02-05T15:02:20.155Z,27.58
2019-02-05T15:04:47.218Z,26.62
2019-02-05T15:07:14.290Z,25.37
2019-02-05T15:09:41.377Z,26.45
2019-02-05T15:12:08.450Z,27.98
2019-02-05T15:14:35.647Z,26.55
2019-02-05T15:17:02.833Z,26.93
2019-02-05T15:19:29.914Z,25.97
2019-02-05T15:21:57.030Z,26.40
2019-02-05T15:24:24.160Z,27.95
2019-02-05T15:26:51.252Z,34.20
2019-02-05T15:29:18.638Z,28.00
2019-02-05T15:31:54.106Z,29.05
2019-02-05T15:34:25.587Z,25.80
2019-02-05T15:36:52.707Z,25.52
2019-02-05T15:39:19.839Z,27.05
2019-02-05T15:41:46.941Z,24.70
2019-02-05T15:44:14.397Z,24.23
2019-02-05T15:46:41.443Z,25.08
2019-02-05T15:49:08.561Z,24.52
2019-02-05T15:51:35.715Z,25.55
2019-02-05T15:54:02.880Z,25.62
2019-02-05T15:56:30.001Z,26.60
2019-02-05T15:58:57.142Z,36.35
2019-02-05T16:01:24.754Z,47.48
2019-02-05T16:03:51.987Z,56.70
2019-02-05T16:06:19.123Z,39.08
2019-02-05T16:08:48.383Z,24.07
2019-02-05T16:11:15.539Z,24.32
2019-02-05T16:13:43.915Z,37.35
2019-02-05T16:16:11.253Z,59.20
2019-02-05T16:18:48.689Z,32.20
2019-02-05T16:21:16.429Z,26.17
2019-02-05T16:23:50.033Z,23.92
2019-02-05T16:26:17.227Z,24.98
2019-02-05T16:28:44.622Z,25.43
2019-02-05T16:31:11.753Z,27.60
2019-02-05T16:33:40.075Z,27.95
2019-02-05T16:36:07.280Z,27.80
2019-02-05T16:38:34.422Z,27.70
2019-02-05T16:41:01.621Z,28.73
2019-02-05T16:43:28.758Z,28.73
2019-02-05T16:45:55.898Z,28.67
2019-02-05T16:48:23.216Z,32.95
2019-02-05T16:50:50.738Z,32.00
2019-02-05T16:53:18.039Z,31.17
2019-02-05T16:55:45.344Z,26.48
2019-02-05T16:58:12.487Z,26.85
2019-02-05T17:00:39.818Z,29.72
2019-02-05T17:03:07.070Z,28.70
2019-02-05T17:05:35.951Z,29.80
2019-02-05T17:08:03.601Z,28.67
2019-02-05T17:10:30.747Z,27.95
2019-02-05T17:12:57.882Z,31.25
2019-02-05T17:15:25.032Z,27.73
2019-02-05T17:17:52.284Z,29.75
2019-02-05T17:20:22.009Z,29.52
2019-02-05T17:22:49.399Z,29.72
2019-02-05T17:25:17.529Z,31.15
2019-02-05T17:27:46.811Z,29.90
2019-02-05T17:30:21.660Z,31.65
2019-02-05T17:32:48.793Z,31.07
2019-02-05T17:35:15.969Z,29.85
2019-02-05T17:37:43.331Z,32.55
2019-02-05T17:40:12.978Z,31.37
2019-02-05T17:42:40.308Z,33.70
2019-02-05T17:45:11.297Z,31.75
2019-02-05T17:47:38.427Z,29.77
2019-02-05T17:50:06.207Z,32.25
2019-02-05T17:52:34.177Z,29.48
2019-02-05T17:55:01.841Z,32.93
2019-02-05T17:57:29.004Z,36.28
2019-02-05T17:59:56.334Z,31.33
2019-02-05T18:02:24.203Z,30.92
2019-02-05T18:04:51.887Z,31.15
2019-02-05T18:07:19.134Z,30.70
2019-02-05T18:09:46.434Z,30.95
2019-02-05T18:12:13.783Z,30.37
2019-02-05T18:14:41.002Z,34.80
2019-02-05T18:17:08.538Z,31.17
2019-02-05T18:19:35.774Z,34.23
2019-02-05T18:22:04.219Z,34.15
2019-02-05T18:24:31.625Z,33.92
2019-02-05T18:26:58.909Z,33.88
2019-02-05T18:29:26.186Z,33.00
2019-02-05T18:31:53.426Z,33.53
2019-02-05T18:34:21.061Z,31.77
2019-02-05T18:36:48.399Z,32.55
2019-02-05T18:39:15.652Z,30.20
2019-02-05T18:41:43.210Z,32.40
2019-02-05T18:44:10.444Z,30.43
2019-02-05T18:46:37.732Z,31.07
2019-02-05T18:49:06.333Z,31.57
2019-02-05T18:51:34.366Z,30.40
2019-02-05T18:54:03.224Z,30.32
2019-02-05T18:56:31.064Z,32.10
2019-02-05T18:58:59.564Z,31.02
2019-02-05T19:01:27.179Z,31.27
2019-02-05T19:03:54.795Z,31.95
2019-02-05T19:06:24.903Z,31.57
2019-02-05T19:08:53.097Z,31.85
2019-02-05T19:11:21.631Z,33.00
2019-02-05T19:13:49.297Z,32.38
2019-02-05T19:16:17.722Z,34.30
2019-02-05T19:18:48.067Z,36.13
2019-02-05T19:21:17.256Z,36.53
2019-02-05T19:23:46.869Z,37.23
2019-02-05T19:26:21.047Z,34.20
2019-02-05T19:28:48.594Z,36.75
2019-02-05T19:31:28.879Z,35.35
2019-02-05T19:33:56.719Z,36.70
2019-02-05T19:36:25.002Z,36.13
2019-02-05T19:38:53.060Z,33.73
2019-02-05T19:41:20.887Z,33.55
2019-02-05T19:43:48.666Z,33.70
2019-02-05T19:46:34.701Z,31.25
2019-02-05T19:49:22.282Z,32.88
2019-02-05T19:51:54.645Z,36.10
2019-02-05T19:54:22.522Z,35.20
2019-02-05T19:56:52.592Z,39.50
2019-02-05T19:59:23.506Z,35.58
2019-02-05T20:01:54.943Z,35.10
2019-02-05T20:04:24.257Z,34.70
2019-02-05T20:06:51.773Z,34.45
2019-02-05T20:09:21.226Z,35.50
2019-02-05T20:11:48.828Z,39.75
2019-02-05T20:14:16.152Z,37.00
2019-02-05T20:16:45.731Z,37.45
2019-02-05T20:19:14.267Z,36.05
2019-02-05T20:21:45.430Z,35.95
2019-02-05T20:24:15.133Z,33.60
2019-02-05T20:26:47.669Z,34.45
2019-02-05T20:29:15.410Z,36.77
2019-02-05T20:31:43.633Z,31.57
2019-02-05T20:34:10.915Z,33.45
2019-02-05T20:36:38.750Z,37.42
2019-02-05T20:39:15.145Z,34.48
2019-02-05T20:41:43.305Z,34.73
2019-02-05T20:44:13.773Z,40.45
2019-02-05T20:46:40.970Z,34.50
2019-02-05T20:49:11.429Z,38.55
2019-02-05T20:51:38.665Z,40.23
2019-02-05T20:54:06.462Z,39.75
2019-02-05T20:56:33.986Z,38.00
2019-02-05T20:59:01.448Z,37.80
2019-02-05T21:01:31.899Z,37.98
2019-02-05T21:04:01.562Z,35.00
2019-02-05T21:06:31.004Z,38.13
2019-02-05T21:08:58.124Z,33.98
2019-02-05T21:11:26.994Z,31.00
2019-02-05T21:13:56.485Z,33.42
2019-02-05T21:16:23.688Z,39.92
2019-02-05T21:18:51.398Z,40.90
2019-02-05T21:21:18.812Z,36.38
2019-02-05T21:23:45.908Z,35.98
2019-02-05T21:26:13.057Z,40.28
2019-02-05T21:28:40.223Z,39.13
2019-02-05T21:31:07.383Z,37.83
2019-02-05T21:33:34.520Z,35.17
2019-02-05T21:36:01.893Z,37.13
2019-02-05T21:38:29.002Z,35.90
2019-02-05T21:40:56.389Z,37.58
2019-02-05T21:43:23.798Z,35.95
2019-02-05T21:45:50.963Z,36.25
2019-02-05T21:48:18.542Z,35.13
2019-02-05T21:50:45.641Z,38.33
2019-02-05T21:53:12.825Z,33.28
2019-02-05T21:55:39.945Z,37.98
2019-02-05T21:58:07.060Z,35.83
2019-02-05T22:00:34.334Z,36.35
2019-02-05T22:03:03.016Z,36.30
2019-02-05T22:05:30.618Z,32.65
2019-02-05T22:07:58.214Z,34.98
2019-02-05T22:10:25.330Z,33.40
2019-02-05T22:12:52.438Z,35.48
2019-02-05T22:15:20.108Z,32.65
2019-02-05T22:17:47.325Z,33.18
2019-02-05T22:20:16.483Z,31.23
2019-02-05T22:22:44.400Z,32.80
2019-02-05T22:25:14.742Z,32.25
2019-02-05T22:27:41.856Z,31.30
2019-02-05T22:30:14.133Z,35.38
2019-02-05T22:32:41.515Z,33.67
2019-02-05T22:35:08.606Z,32.85
2019-02-05T22:37:35.701Z,32.05
2019-02-05T22:40:04.093Z,35.70
2019-02-05T22:42:31.175Z,34.40
2019-02-05T22:44:58.350Z,33.35
2019-02-05T22:47:25.399Z,32.00
2019-02-05T22:49:52.468Z,32.42
2019-02-05T22:52:19.533Z,33.95
2019-02-05T22:54:46.564Z,33.70
2019-02-05T22:57:13.607Z,31.65
2019-02-05T22:59:40.846Z,34.35
2019-02-05T23:02:07.979Z,31.12
2019-02-05T23:05:28.569Z,42.88
2019-02-05T23:07:55.614Z,30.00
2019-02-05T23:10:43.617Z,30.85
2019-02-05T23:13:13.418Z,28.75
2019-02-05T23:15:42.700Z,28.80
2019-02-05T23:18:10.061Z,31.55
2019-02-05T23:20:37.103Z,32.38
2019-02-05T23:23:04.179Z,26.82
2019-02-05T23:25:31.228Z,29.60
2019-02-05T23:27:58.282Z,29.57
2019-02-05T23:30:26.898Z,25.92
2019-02-05T23:32:53.955Z,28.47
2019-02-05T23:35:21.043Z,31.07
2019-02-05T23:37:48.325Z,25.35
2019-02-05T23:40:15.346Z,30.88
2019-02-05T23:42:42.389Z,27.40
2019-02-05T23:45:09.671Z,26.75
2019-02-05T23:47:36.729Z,28.62
2019-02-05T23:50:05.029Z,28.40
2019-02-05T23:52:32.085Z,37.00
2019-02-05T23:54:59.431Z,27.93
2019-02-05T23:57:26.499Z,30.00
2019-02-05T23:59:53.531Z,26.02
